sensor_id;sensor_type;location;lat;lon;timestamp;P1;durP1;ratioP1;P2;durP2;ratioP2
20104;SDS011;10212;42.714;23.310;2023-02-17T00:06:58;131.48;;;58.92;;
20104;SDS011;10212;42.714;23.310;2023-02-17T00:16:58;160.27;;;75.20;;
20104;SDS011;10212;42.714;23.310;2023-02-17T00:26:59;170.68;;;77.70;;
20104;SDS011;10212;42.714;23.310;2023-02-17T00:36:59;138.98;;;68.07;;
20104;SDS011;10212;42.714;23.310;2023-02-17T00:47:00;130.85;;;60.67;;
20104;SDS011;10212;42.714;23.310;2023-02-17T01:07:00;115.70;;;48.83;;
20104;SDS011;10212;42.714;23.310;2023-02-17T01:17:01;99.30;;;43.22;;
20104;SDS011;10212;42.714;23.310;2023-02-17T01:27:01;60.55;;;26.02;;
20104;SDS011;10212;42.714;23.310;2023-02-17T01:37:01;60.05;;;26.00;;
20104;SDS011;10212;42.714;23.310;2023-02-17T01:47:02;55.42;;;26.25;;
20104;SDS011;10212;42.714;23.310;2023-02-17T01:57:02;95.93;;;40.67;;
20104;SDS011;10212;42.714;23.310;2023-02-17T02:07:03;102.55;;;45.88;;
20104;SDS011;10212;42.714;23.310;2023-02-17T02:17:53;89.90;;;39.40;;
20104;SDS011;10212;42.714;23.310;2023-02-17T02:28:16;88.50;;;40.35;;
20104;SDS011;10212;42.714;23.310;2023-02-17T02:48:43;82.80;;;38.43;;
20104;SDS011;10212;42.714;23.310;2023-02-17T02:58:46;81.43;;;36.58;;
20104;SDS011;10212;42.714;23.310;2023-02-17T03:08:59;81.60;;;38.33;;
20104;SDS011;10212;42.714;23.310;2023-02-17T03:19:04;96.20;;;44.42;;
20104;SDS011;10212;42.714;23.310;2023-02-17T03:29:05;97.97;;;43.10;;
20104;SDS011;10212;42.714;23.310;2023-02-17T03:49:06;93.68;;;40.17;;
20104;SDS011;10212;42.714;23.310;2023-02-17T03:59:07;81.75;;;39.13;;
20104;SDS011;10212;42.714;23.310;2023-02-17T04:09:07;86.72;;;38.80;;
20104;SDS011;10212;42.714;23.310;2023-02-17T04:19:08;103.30;;;45.58;;
20104;SDS011;10212;42.714;23.310;2023-02-17T04:29:08;103.63;;;45.65;;
20104;SDS011;10212;42.714;23.310;2023-02-17T04:39:09;106.80;;;46.80;;
20104;SDS011;10212;42.714;23.310;2023-02-17T04:49:09;93.32;;;42.95;;
20104;SDS011;10212;42.714;23.310;2023-02-17T04:59:11;97.00;;;42.95;;
20104;SDS011;10212;42.714;23.310;2023-02-17T05:09:12;90.50;;;42.28;;
20104;SDS011;10212;42.714;23.310;2023-02-17T05:19:12;88.60;;;40.97;;
20104;SDS011;10212;42.714;23.310;2023-02-17T05:29:13;93.72;;;39.63;;
20104;SDS011;10212;42.714;23.310;2023-02-17T05:39:13;72.47;;;32.83;;
20104;SDS011;10212;42.714;23.310;2023-02-17T05:49:15;71.97;;;34.30;;
20104;SDS011;10212;42.714;23.310;2023-02-17T05:59:24;64.18;;;29.58;;
20104;SDS011;10212;42.714;23.310;2023-02-17T06:09:28;66.40;;;31.92;;
20104;SDS011;10212;42.714;23.310;2023-02-17T06:19:28;65.80;;;30.33;;
20104;SDS011;10212;42.714;23.310;2023-02-17T06:29:29;61.85;;;29.33;;
20104;SDS011;10212;42.714;23.310;2023-02-17T06:39:30;63.72;;;32.92;;
20104;SDS011;10212;42.714;23.310;2023-02-17T06:49:30;85.32;;;38.30;;
20104;SDS011;10212;42.714;23.310;2023-02-17T06:59:31;80.05;;;38.10;;
20104;SDS011;10212;42.714;23.310;2023-02-17T07:09:32;79.75;;;37.85;;
20104;SDS011;10212;42.714;23.310;2023-02-17T07:19:33;69.10;;;31.52;;
20104;SDS011;10212;42.714;23.310;2023-02-17T07:29:34;62.13;;;30.63;;
20104;SDS011;10212;42.714;23.310;2023-02-17T07:39:34;60.25;;;28.63;;
20104;SDS011;10212;42.714;23.310;2023-02-17T07:49:35;54.17;;;28.60;;
20104;SDS011;10212;42.714;23.310;2023-02-17T07:59:35;56.83;;;29.25;;
20104;SDS011;10212;42.714;23.310;2023-02-17T08:09:35;57.63;;;28.15;;
20104;SDS011;10212;42.714;23.310;2023-02-17T08:19:54;62.08;;;29.67;;
20104;SDS011;10212;42.714;23.310;2023-02-17T08:29:55;64.13;;;29.13;;
20104;SDS011;10212;42.714;23.310;2023-02-17T08:39:55;63.60;;;29.02;;
20104;SDS011;10212;42.714;23.310;2023-02-17T08:49:57;15.23;;;6.68;;
20104;SDS011;10212;42.714;23.310;2023-02-17T08:59:58;14.55;;;7.47;;
20104;SDS011;10212;42.714;23.310;2023-02-17T09:09:59;21.92;;;8.60;;
20104;SDS011;10212;42.714;23.310;2023-02-17T09:20:00;11.48;;;6.30;;
20104;SDS011;10212;42.714;23.310;2023-02-17T09:30:00;15.18;;;6.70;;
20104;SDS011;10212;42.714;23.310;2023-02-17T09:40:00;10.73;;;6.88;;
20104;SDS011;10212;42.714;23.310;2023-02-17T09:50:03;13.85;;;6.72;;
20104;SDS011;10212;42.714;23.310;2023-02-17T10:00:15;13.60;;;6.63;;
20104;SDS011;10212;42.714;23.310;2023-02-17T10:10:25;16.83;;;6.85;;
20104;SDS011;10212;42.714;23.310;2023-02-17T10:20:30;14.15;;;6.80;;
20104;SDS011;10212;42.714;23.310;2023-02-17T10:31:09;16.83;;;6.97;;
20104;SDS011;10212;42.714;23.310;2023-02-17T10:41:03;12.23;;;5.70;;
20104;SDS011;10212;42.714;23.310;2023-02-17T10:51:06;10.32;;;5.10;;
20104;SDS011;10212;42.714;23.310;2023-02-17T11:01:06;12.10;;;4.80;;
20104;SDS011;10212;42.714;23.310;2023-02-17T11:11:15;11.10;;;4.88;;
20104;SDS011;10212;42.714;23.310;2023-02-17T11:21:18;7.63;;;4.75;;
20104;SDS011;10212;42.714;23.310;2023-02-17T11:31:25;11.57;;;5.45;;
20104;SDS011;10212;42.714;23.310;2023-02-17T11:41:37;10.97;;;5.50;;
20104;SDS011;10212;42.714;23.310;2023-02-17T12:22:19;7.65;;;4.85;;
20104;SDS011;10212;42.714;23.310;2023-02-17T12:54:05;9.38;;;5.10;;
20104;SDS011;10212;42.714;23.310;2023-02-17T13:04:03;14.00;;;5.35;;
20104;SDS011;10212;42.714;23.310;2023-02-17T13:14:11;6.38;;;4.00;;
20104;SDS011;10212;42.714;23.310;2023-02-17T13:24:49;7.13;;;4.78;;
20104;SDS011;10212;42.714;23.310;2023-02-17T13:34:58;9.73;;;5.03;;
20104;SDS011;10212;42.714;23.310;2023-02-17T13:45:00;9.38;;;5.25;;
20104;SDS011;10212;42.714;23.310;2023-02-17T13:55:02;7.80;;;4.40;;
20104;SDS011;10212;42.714;23.310;2023-02-17T14:05:08;8.57;;;5.20;;
20104;SDS011;10212;42.714;23.310;2023-02-17T14:15:35;9.40;;;5.35;;
20104;SDS011;10212;42.714;23.310;2023-02-17T14:25:37;9.57;;;6.30;;
20104;SDS011;10212;42.714;23.310;2023-02-17T14:35:48;9.57;;;5.85;;
20104;SDS011;10212;42.714;23.310;2023-02-17T14:45:50;9.30;;;5.82;;
20104;SDS011;10212;42.714;23.310;2023-02-17T14:56:01;10.48;;;6.07;;
20104;SDS011;10212;42.714;23.310;2023-02-17T15:06:19;12.43;;;6.90;;
20104;SDS011;10212;42.714;23.310;2023-02-17T15:16:21;18.25;;;7.85;;
20104;SDS011;10212;42.714;23.310;2023-02-17T15:26:22;16.10;;;8.80;;
20104;SDS011;10212;42.714;23.310;2023-02-17T15:36:23;18.60;;;8.23;;
20104;SDS011;10212;42.714;23.310;2023-02-17T15:46:28;18.00;;;8.43;;
20104;SDS011;10212;42.714;23.310;2023-02-17T15:56:31;16.80;;;9.20;;
20104;SDS011;10212;42.714;23.310;2023-02-17T16:06:38;17.67;;;7.43;;
20104;SDS011;10212;42.714;23.310;2023-02-17T16:16:38;14.18;;;7.00;;
20104;SDS011;10212;42.714;23.310;2023-02-17T16:26:39;12.00;;;7.18;;
20104;SDS011;10212;42.714;23.310;2023-02-17T16:36:41;17.98;;;6.70;;
20104;SDS011;10212;42.714;23.310;2023-02-17T16:46:49;13.43;;;5.63;;
20104;SDS011;10212;42.714;23.310;2023-02-17T16:56:51;13.25;;;5.68;;
20104;SDS011;10212;42.714;23.310;2023-02-17T17:06:54;13.30;;;6.10;;
20104;SDS011;10212;42.714;23.310;2023-02-17T17:16:55;13.35;;;6.35;;
20104;SDS011;10212;42.714;23.310;2023-02-17T17:26:59;10.55;;;6.03;;
20104;SDS011;10212;42.714;23.310;2023-02-17T17:36:59;15.63;;;6.95;;
20104;SDS011;10212;42.714;23.310;2023-02-17T17:47:00;12.70;;;6.03;;
20104;SDS011;10212;42.714;23.310;2023-02-17T17:57:00;11.63;;;6.60;;
20104;SDS011;10212;42.714;23.310;2023-02-17T18:07:01;13.57;;;6.30;;
20104;SDS011;10212;42.714;23.310;2023-02-17T18:17:02;10.55;;;6.32;;
20104;SDS011;10212;42.714;23.310;2023-02-17T18:27:03;13.30;;;7.15;;
20104;SDS011;10212;42.714;23.310;2023-02-17T18:37:04;10.93;;;6.38;;
20104;SDS011;10212;42.714;23.310;2023-02-17T18:47:04;14.00;;;7.23;;
20104;SDS011;10212;42.714;23.310;2023-02-17T18:57:05;20.92;;;9.98;;
20104;SDS011;10212;42.714;23.310;2023-02-17T19:07:05;14.10;;;7.35;;
20104;SDS011;10212;42.714;23.310;2023-02-17T19:17:10;85.03;;;41.85;;
20104;SDS011;10212;42.714;23.310;2023-02-17T19:27:11;61.47;;;27.88;;
20104;SDS011;10212;42.714;23.310;2023-02-17T19:37:12;43.83;;;19.25;;
20104;SDS011;10212;42.714;23.310;2023-02-17T19:47:13;34.80;;;16.45;;
20104;SDS011;10212;42.714;23.310;2023-02-17T19:57:13;24.45;;;11.55;;
20104;SDS011;10212;42.714;23.310;2023-02-17T20:07:16;16.17;;;9.93;;
20104;SDS011;10212;42.714;23.310;2023-02-17T20:17:16;22.27;;;9.82;;
20104;SDS011;10212;42.714;23.310;2023-02-17T20:37:17;19.30;;;10.45;;
20104;SDS011;10212;42.714;23.310;2023-02-17T20:47:17;23.40;;;13.05;;
20104;SDS011;10212;42.714;23.310;2023-02-17T20:57:18;26.33;;;11.85;;
20104;SDS011;10212;42.714;23.310;2023-02-17T21:07:18;20.50;;;11.10;;
20104;SDS011;10212;42.714;23.310;2023-02-17T21:27:19;27.13;;;13.50;;
20104;SDS011;10212;42.714;23.310;2023-02-17T21:47:20;26.25;;;12.38;;
20104;SDS011;10212;42.714;23.310;2023-02-17T21:57:21;20.02;;;10.57;;
20104;SDS011;10212;42.714;23.310;2023-02-17T22:07:21;19.45;;;10.30;;
20104;SDS011;10212;42.714;23.310;2023-02-17T22:17:22;26.30;;;12.95;;
20104;SDS011;10212;42.714;23.310;2023-02-17T22:37:23;24.92;;;13.27;;
20104;SDS011;10212;42.714;23.310;2023-02-17T22:57:23;40.97;;;20.88;;
20104;SDS011;10212;42.714;23.310;2023-02-17T23:17:24;39.03;;;17.92;;
20104;SDS011;10212;42.714;23.310;2023-02-17T23:37:25;38.78;;;17.85;;
20104;SDS011;10212;42.714;23.310;2023-02-17T23:57:25;42.53;;;19.73;;
